Terminal Aerodrome Forecast
Issued by NWS Springfield, MO

Home | Current Version | Previous Version | Text Only | Print | Product List | Glossary On
Versions: 1 2 3 4 5 6 7 8 9 10 11 12 13 14 15 16 17 18 19 20 21 22 23 24 25 26 27 28 29 30
000
FTUS43 KSGF 262326
TAFSGF
TAF
KSGF 262326Z 2700/2724 14006KT P6SM SCT120 OVC250
     FM270200 13008KT P6SM VCSH SCT050 OVC100
     FM270500 14010KT 6SM -TSRA OVC050CB
     FM271000 15009KT 6SM -TSRA OVC025CB
     FM271400 21006KT 6SM -SHRA OVC015
     FM271800 30007KT P6SM BKN020=

USA.gov is the U.S. government's official web portal to all federal, state and local government web resources and services.